This is the latest recevied weather packets stored in our database for station/object F6BIJ-13. If no packets are shown the sender has not sent any weather packets the latest 10 day(s).
| Time | Temp. | Humidity | Pressure | Rain* | Wind** | Luminosity | Snow |
|---|---|---|---|---|---|---|---|
| 1778140837 | 15° C | 76% | 1015 hPa | 0 mm | - | - | - |
| 1778140477 | 15° C | 73% | 1015.1 hPa | 0 mm | - | - | - |
| 1778140117 | 16.11° C | 73% | 1015 hPa | 0 mm | - | - | - |
| 1778139757 | 15.56° C | 72% | 1015.1 hPa | 0 mm | - | - | - |
| 1778139397 | 15.56° C | 74% | 1015.1 hPa | 0 mm | - | - | - |
| 1778139037 | 13.89° C | 82% | 1015.1 hPa | 0 mm | - | - | - |
| 1778138677 | 13.33° C | 82% | 1015.1 hPa | 0 mm | - | - | - |
| 1778138317 | 13.33° C | 83% | 1015.1 hPa | 0 mm | - | - | - |
| 1778137957 | 12.78° C | 85% | 1015.1 hPa | 0 mm | - | - | - |
| 1778137597 | 11.67° C | 90% | 1015.1 hPa | 0 mm | - | - | - |
| 1778137237 | 11.67° C | 92% | 1015.1 hPa | 0 mm | - | - | - |
| 1778136877 | 11.67° C | 92% | 1015.1 hPa | 0 mm | - | - | - |
| 1778136517 | 10.56° C | 94% | 1015.1 hPa | 0 mm | - | - | - |
| 1778136157 | 11.67° C | 93% | 1015.1 hPa | 0 mm | - | - | - |
| 1778135797 | 10.56° C | 93% | 1015.2 hPa | 0 mm | - | - | - |
| 1778135437 | 10.56° C | 94% | 1015.2 hPa | 0 mm | - | - | - |
| 1778135077 | 11.67° C | 95% | 1015.2 hPa | 0 mm | - | - | - |
| 1778134717 | 10.56° C | 96% | 1015.1 hPa | 0 mm | - | - | - |
| 1778134357 | 11.11° C | 96% | 1015.1 hPa | 0 mm | - | - | - |
| 1778133997 | 10° C | 96% | 1015.1 hPa | 0 mm | - | - | - |
| 1778133637 | 9.44° C | 96% | 1015.1 hPa | 0 mm | - | - | - |
| 1778133277 | 9.44° C | 96% | 1015.1 hPa | 0 mm | - | - | - |
| 1778132917 | 9.44° C | 96% | 1015.1 hPa | 0 mm | - | - | - |
| 1778132557 | 9.44° C | 96% | 1015.1 hPa | 0 mm | - | - | - |
| 1778132197 | 9.44° C | 96% | 1015 hPa | 0 mm | - | - | - |
* Rain latest 24 hours (hover to see other rain measurements)
** Current wind speed in m/s (hover to see current wind gust speed)